createdAt,value
2022-09-28T00:04:57.303Z,6.73
2022-09-28T00:09:59.245Z,8.10
2022-09-28T00:15:00.420Z,11.90
2022-09-28T00:20:04.568Z,12.23
2022-09-28T00:25:06.662Z,11.83
2022-09-28T00:30:08.562Z,12.27
2022-09-28T00:35:10.214Z,12.10
2022-09-28T00:40:11.356Z,12.03
2022-09-28T00:45:12.434Z,10.97
2022-09-28T00:50:33.346Z,11.47
2022-09-28T00:55:54.477Z,10.83
2022-09-28T01:00:57.698Z,10.80
2022-09-28T01:06:01.934Z,11.40
2022-09-28T01:11:04.175Z,12.33
2022-09-28T01:16:43.189Z,12.87
2022-09-28T01:22:15.307Z,12.20
2022-09-28T01:27:32.283Z,11.03
2022-09-28T01:32:48.118Z,10.30
2022-09-28T01:37:57.545Z,9.50
2022-09-28T01:43:05.961Z,10.00
2022-09-28T01:48:09.277Z,9.43
2022-09-28T01:53:18.623Z,7.77
2022-09-28T01:58:29.027Z,7.67
2022-09-28T02:03:51.596Z,7.87
2022-09-28T02:08:59.114Z,7.67
2022-09-28T02:14:13.663Z,8.23
2022-09-28T02:19:18.591Z,7.80
2022-09-28T02:24:27.852Z,7.97
2022-09-28T02:29:29.339Z,8.47
2022-09-28T02:34:30.817Z,8.17
2022-09-28T02:39:32.587Z,8.70
2022-09-28T02:45:14.624Z,8.93
2022-09-28T02:50:58.689Z,8.83
2022-09-28T02:56:24.564Z,8.20
2022-09-28T03:01:35.214Z,6.77
2022-09-28T03:06:54.035Z,7.73
2022-09-28T03:11:58.210Z,7.20
2022-09-28T03:16:59.597Z,8.27
2022-09-28T03:22:01.065Z,7.50
2022-09-28T03:27:02.557Z,7.47
2022-09-28T03:32:03.896Z,7.03
2022-09-28T03:37:05.063Z,7.10
2022-09-28T03:42:06.449Z,6.70
2022-09-28T03:47:13.278Z,5.37
2022-09-28T03:52:15.433Z,5.37
2022-09-28T03:57:16.626Z,4.70
2022-09-28T04:02:17.918Z,4.97
2022-09-28T04:07:19.034Z,4.20
2022-09-28T04:12:20.659Z,4.03
2022-09-28T04:17:22.671Z,4.90
2022-09-28T04:22:24.218Z,4.57
2022-09-28T04:27:43.890Z,4.43
2022-09-28T04:32:47.087Z,3.63
2022-09-28T04:37:48.379Z,3.50
2022-09-28T04:42:56.622Z,3.27
2022-09-28T04:47:58.794Z,3.63
2022-09-28T04:53:26.265Z,3.10
2022-09-28T04:58:28.114Z,3.73
2022-09-28T05:03:29.406Z,4.13
2022-09-28T05:08:56.783Z,3.93
2022-09-28T05:13:58.051Z,4.90
2022-09-28T05:18:59.769Z,4.83
2022-09-28T05:24:06.534Z,4.90
2022-09-28T05:29:10.165Z,4.43
2022-09-28T05:34:37.363Z,5.27
2022-09-28T05:39:39.229Z,5.60
2022-09-28T05:44:40.931Z,5.70
2022-09-28T05:49:46.208Z,6.17
2022-09-28T05:54:47.928Z,5.97
2022-09-28T05:59:49.201Z,7.23
2022-09-28T06:04:51.241Z,7.23
2022-09-28T06:09:53.181Z,8.17
2022-09-28T06:15:12.463Z,9.33
2022-09-28T06:20:13.981Z,12.37
2022-09-28T06:25:29.754Z,15.57
2022-09-28T06:30:39.404Z,15.73
2022-09-28T06:35:43.440Z,16.37
2022-09-28T06:40:44.906Z,17.17
2022-09-28T06:45:51.239Z,15.70
2022-09-28T06:51:10.720Z,14.77
2022-09-28T06:56:32.865Z,13.77
2022-09-28T07:01:34.394Z,13.80
2022-09-28T07:06:59.000Z,13.77
2022-09-28T07:12:18.415Z,13.50
2022-09-28T07:17:28.007Z,11.83
2022-09-28T07:22:41.915Z,12.83
2022-09-28T07:27:48.662Z,13.33
2022-09-28T07:33:13.680Z,12.93
2022-09-28T07:38:25.323Z,11.57
2022-09-28T07:43:27.062Z,13.13
2022-09-28T07:48:35.898Z,12.50
2022-09-28T07:53:57.358Z,13.80
2022-09-28T07:59:36.893Z,11.80
2022-09-28T08:04:57.527Z,11.83
2022-09-28T08:09:58.954Z,11.90
2022-09-28T08:15:03.803Z,14.40
2022-09-28T08:20:40.205Z,15.63
2022-09-28T08:25:49.409Z,11.90
2022-09-28T08:30:51.086Z,9.53
2022-09-28T08:36:12.658Z,9.47
2022-09-28T08:41:48.736Z,6.53
2022-09-28T08:47:43.321Z,5.70
2022-09-28T08:53:18.986Z,5.32
2022-09-28T08:58:42.888Z,4.68
2022-09-28T09:03:45.580Z,4.60
2022-09-28T09:09:18.183Z,4.57
2022-09-28T09:14:27.333Z,4.95
2022-09-28T09:19:35.509Z,4.15
2022-09-28T09:25:07.733Z,4.22
2022-09-28T09:30:23.935Z,3.10
2022-09-28T09:35:36.738Z,2.92
2022-09-28T09:41:19.397Z,2.88
2022-09-28T09:46:56.966Z,2.55
2022-09-28T09:52:28.864Z,2.60
2022-09-28T09:57:38.841Z,1.83
2022-09-28T10:02:50.343Z,2.30
2022-09-28T10:08:07.947Z,1.50
2022-09-28T10:13:10.590Z,1.63
2022-09-28T10:18:15.263Z,2.17
2022-09-28T10:23:37.086Z,1.77
2022-09-28T10:28:57.340Z,1.50
2022-09-28T10:33:59.542Z,1.48
2022-09-28T10:39:02.747Z,1.08
2022-09-28T10:44:16.679Z,1.80
2022-09-28T10:49:48.553Z,1.48
2022-09-28T10:54:53.108Z,1.23
2022-09-28T10:59:55.677Z,1.00
2022-09-28T11:05:05.815Z,0.83
2022-09-28T11:10:32.197Z,1.10
2022-09-28T11:15:43.504Z,1.87
2022-09-28T11:21:09.896Z,1.70
2022-09-28T11:26:18.218Z,1.50
2022-09-28T11:31:28.198Z,1.70
2022-09-28T11:37:07.287Z,1.53
2022-09-28T11:42:10.203Z,1.42
2022-09-28T11:47:38.421Z,1.30
2022-09-28T11:52:51.023Z,1.27
2022-09-28T11:58:18.895Z,1.10
2022-09-28T12:03:27.578Z,1.33
2022-09-28T12:08:41.917Z,1.05
2022-09-28T12:13:47.288Z,0.90
2022-09-28T12:24:17.849Z,1.35
2022-09-28T12:29:42.767Z,1.50
2022-09-28T12:34:44.011Z,0.68
2022-09-28T12:40:06.179Z,0.88
2022-09-28T12:45:10.990Z,0.93
2022-09-28T12:56:07.258Z,0.80
2022-09-28T13:01:39.311Z,0.93
2022-09-28T13:07:04.348Z,1.40
2022-09-28T13:12:30.227Z,1.25
2022-09-28T13:18:00.187Z,1.00
2022-09-28T13:23:29.241Z,0.90
2022-09-28T13:28:32.081Z,1.20
2022-09-28T13:33:40.284Z,1.00
2022-09-28T13:38:48.767Z,1.00
2022-09-28T13:43:49.806Z,0.70
2022-09-28T13:49:03.950Z,1.10
2022-09-28T13:54:14.956Z,1.50
2022-09-28T13:59:27.916Z,1.88
2022-09-28T14:05:05.890Z,1.50
2022-09-28T14:10:51.078Z,1.42
2022-09-28T14:15:52.355Z,1.35
2022-09-28T14:21:30.259Z,1.83
2022-09-28T14:26:57.748Z,1.50
2022-09-28T14:32:10.002Z,1.40
2022-09-28T14:37:49.147Z,1.60
2022-09-28T14:43:32.058Z,1.57
2022-09-28T14:48:56.508Z,1.40
2022-09-28T14:54:00.371Z,1.30
2022-09-28T14:59:06.272Z,1.30
2022-09-28T15:04:11.968Z,1.30
2022-09-28T15:09:33.179Z,1.37
2022-09-28T15:14:50.682Z,1.20
2022-09-28T15:20:04.054Z,1.10
2022-09-28T15:25:13.917Z,1.30
2022-09-28T15:30:18.235Z,1.73
2022-09-28T15:35:25.565Z,1.13
2022-09-28T15:40:34.165Z,1.43
2022-09-28T15:45:37.799Z,1.30
2022-09-28T15:50:56.431Z,1.40
2022-09-28T15:56:08.817Z,0.70
2022-09-28T16:01:28.612Z,0.77
2022-09-28T16:06:29.797Z,0.70
2022-09-28T16:11:38.940Z,0.80
2022-09-28T16:16:48.647Z,0.93
2022-09-28T16:21:55.665Z,0.80
2022-09-28T16:27:04.289Z,0.80
2022-09-28T16:32:24.428Z,0.83
2022-09-28T16:37:31.120Z,0.97
2022-09-28T16:42:32.355Z,0.70
2022-09-28T16:47:33.992Z,0.87
2022-09-28T16:52:56.766Z,1.07
2022-09-28T16:58:03.985Z,1.00
2022-09-28T17:03:17.684Z,1.00
2022-09-28T17:08:21.508Z,1.23
2022-09-28T17:13:32.478Z,1.60
2022-09-28T17:18:36.726Z,1.23
2022-09-28T17:23:38.077Z,1.43
2022-09-28T17:28:39.119Z,2.10
2022-09-28T17:33:40.311Z,1.67
2022-09-28T17:38:42.322Z,1.90
2022-09-28T17:43:43.550Z,1.23
2022-09-28T17:48:46.297Z,1.67
2022-09-28T17:53:47.637Z,1.90
2022-09-28T17:58:48.708Z,2.20
2022-09-28T18:03:49.838Z,1.80
2022-09-28T18:08:50.963Z,1.97
2022-09-28T18:13:52.161Z,1.90
2022-09-28T18:18:53.434Z,2.00
2022-09-28T18:23:54.660Z,3.13
2022-09-28T18:28:55.867Z,2.87
2022-09-28T18:34:00.942Z,3.17
2022-09-28T18:39:03.126Z,2.33
2022-09-28T18:44:04.245Z,2.13
2022-09-28T18:49:05.637Z,1.77
2022-09-28T18:54:06.938Z,2.70
2022-09-28T18:59:20.983Z,2.43
2022-09-28T19:04:22.860Z,3.43
2022-09-28T19:09:25.662Z,9.37
2022-09-28T19:14:26.823Z,6.20
2022-09-28T19:19:28.896Z,5.30
2022-09-28T19:24:30.192Z,6.73
2022-09-28T19:29:31.489Z,4.07
2022-09-28T19:34:32.771Z,8.37
2022-09-28T19:39:34.049Z,10.00
2022-09-28T19:44:38.730Z,6.87
2022-09-28T19:49:40.778Z,8.30
2022-09-28T19:54:43.974Z,18.80
2022-09-28T19:59:48.370Z,13.30
2022-09-28T20:04:52.097Z,10.97
2022-09-28T20:09:53.263Z,13.17
2022-09-28T20:14:54.343Z,8.63
2022-09-28T20:19:55.401Z,6.47
2022-09-28T20:24:56.569Z,5.23
2022-09-28T20:29:58.886Z,7.07
2022-09-28T20:35:00.077Z,5.73
2022-09-28T20:40:01.372Z,4.50
2022-09-28T20:45:04.059Z,4.87
2022-09-28T20:50:05.845Z,5.23
2022-09-28T20:55:07.518Z,5.47
2022-09-28T21:00:09.592Z,6.80
2022-09-28T21:05:10.898Z,6.03
2022-09-28T21:10:12.928Z,6.70
2022-09-28T21:15:14.249Z,6.07
2022-09-28T21:20:15.289Z,7.27
2022-09-28T21:25:16.361Z,7.47
2022-09-28T21:30:19.279Z,7.10
2022-09-28T21:35:20.334Z,7.73
2022-09-28T21:40:21.835Z,8.00
2022-09-28T21:45:24.388Z,8.13
2022-09-28T21:50:26.077Z,8.40
2022-09-28T21:55:27.164Z,9.17
2022-09-28T22:00:28.366Z,9.47
2022-09-28T22:05:29.503Z,8.43
2022-09-28T22:10:30.635Z,8.53
2022-09-28T22:15:31.886Z,8.13
2022-09-28T22:20:33.256Z,8.17
2022-09-28T22:25:34.478Z,8.03
2022-09-28T22:30:35.544Z,8.17
2022-09-28T22:35:36.685Z,9.63
2022-09-28T22:40:42.137Z,8.13
2022-09-28T22:45:44.256Z,7.70
2022-09-28T22:50:50.189Z,7.23
2022-09-28T22:55:51.601Z,6.77
2022-09-28T23:00:53.378Z,6.63
2022-09-28T23:05:55.561Z,7.67
2022-09-28T23:10:56.702Z,7.37
2022-09-28T23:16:03.181Z,7.30
2022-09-28T23:21:06.772Z,7.30
2022-09-28T23:26:12.593Z,7.03
2022-09-28T23:31:16.699Z,7.23
2022-09-28T23:36:18.232Z,6.57
2022-09-28T23:41:19.445Z,6.70
2022-09-28T23:46:21.293Z,7.37
2022-09-28T23:51:22.818Z,6.47
2022-09-28T23:56:23.862Z,7.57
